APG323 RPVA-RPLL
Flight info
| Callsign | APG323 |
|---|---|
| Flight time | 0h 55m |
| Altitude | 34000 |
| Route | MALAG W9 AKDAP |
| Aircraft | A320/M-SDE3FGHIRWY/LB1 |
Departure
| Time | 2026-04-19 05:56 |
|---|---|
| Airport | Daniel Z. Romualdez Airport (RPVA) |
Arrival
| Time | 2026-04-19 06:51 |
|---|---|
| Airport | Ninoy Aquino International Airport (RPLL) |
| Time | Latitude | Longitude | Altitude | Speed | Heading |
|---|---|---|---|---|---|
| 2026-04-19 05:41 | 11.22683 | 125.02651 | 16 ft | 0 kts | 312° |
| 2026-04-19 05:52 | 11.22688 | 125.02651 | 16 ft | 0 kts | 26° |
| 2026-04-19 05:52 | 11.22689 | 125.02667 | 16 ft | 4 kts | 89° |
| 2026-04-19 05:52 | 11.22713 | 125.02694 | 16 ft | 7 kts | 14° |
| 2026-04-19 05:53 | 11.22759 | 125.02729 | 15 ft | 9 kts | 64° |
| 2026-04-19 05:53 | 11.22809 | 125.02776 | 15 ft | 11 kts | 12° |
| 2026-04-19 05:53 | 11.22897 | 125.02783 | 15 ft | 14 kts | 4° |
| 2026-04-19 05:53 | 11.23012 | 125.02792 | 14 ft | 19 kts | 4° |
| 2026-04-19 05:54 | 11.23158 | 125.02801 | 14 ft | 21 kts | 4° |
| 2026-04-19 05:54 | 11.23305 | 125.02811 | 14 ft | 21 kts | 4° |
| 2026-04-19 05:54 | 11.23453 | 125.02821 | 14 ft | 20 kts | 4° |
| 2026-04-19 05:54 | 11.23578 | 125.02830 | 13 ft | 14 kts | 4° |
| 2026-04-19 05:55 | 11.23667 | 125.02813 | 13 ft | 12 kts | 337° |
| 2026-04-19 05:55 | 11.23708 | 125.02834 | 13 ft | 4 kts | 129° |
| 2026-04-19 05:55 | 11.23692 | 125.02837 | 13 ft | 0 kts | 185° |
| 2026-04-19 05:55 | 11.23666 | 125.02835 | 13 ft | 21 kts | 185° |
| 2026-04-19 05:56 | 11.23227 | 125.02806 | 14 ft | 102 kts | 184° |
| 2026-04-19 05:56 | 11.22313 | 125.02744 | 137 ft | 152 kts | 184° |
| 2026-04-19 05:56 | 11.21235 | 125.02670 | 729 ft | 158 kts | 184° |
| 2026-04-19 05:56 | 11.20148 | 125.02653 | 1445 ft | 161 kts | 167° |
| 2026-04-19 05:57 | 11.19285 | 125.03280 | 1972 ft | 160 kts | 117° |
| 2026-04-19 05:57 | 11.19138 | 125.04411 | 2256 ft | 171 kts | 74° |
| 2026-04-19 05:57 | 11.19818 | 125.05434 | 2542 ft | 183 kts | 41° |
| 2026-04-19 05:57 | 11.20848 | 125.06288 | 2841 ft | 199 kts | 38° |
| 2026-04-19 05:58 | 11.21981 | 125.07200 | 3142 ft | 217 kts | 39° |
| 2026-04-19 05:58 | 11.23209 | 125.08218 | 3390 ft | 240 kts | 39° |
| 2026-04-19 05:58 | 11.24530 | 125.09344 | 3795 ft | 258 kts | 40° |
| 2026-04-19 05:58 | 11.25950 | 125.10567 | 4245 ft | 273 kts | 40° |
| 2026-04-19 05:59 | 11.27395 | 125.11819 | 4951 ft | 277 kts | 40° |
| 2026-04-19 05:59 | 11.28964 | 125.12962 | 5710 ft | 280 kts | 26° |
| 2026-04-19 05:59 | 11.30791 | 125.13546 | 6451 ft | 282 kts | 7° |
| 2026-04-19 05:59 | 11.32757 | 125.13721 | 7219 ft | 285 kts | 3° |
| 2026-04-19 06:00 | 11.34728 | 125.13825 | 7954 ft | 289 kts | 2° |
| 2026-04-19 06:00 | 11.36730 | 125.13932 | 8693 ft | 292 kts | 3° |
| 2026-04-19 06:00 | 11.38758 | 125.13982 | 9414 ft | 295 kts | 354° |
| 2026-04-19 06:00 | 11.40729 | 125.13408 | 10025 ft | 302 kts | 332° |
| 2026-04-19 06:01 | 11.42459 | 125.12141 | 10364 ft | 318 kts | 319° |
| 2026-04-19 06:01 | 11.44144 | 125.10607 | 10667 ft | 335 kts | 317° |
| 2026-04-19 06:01 | 11.45916 | 125.08966 | 10960 ft | 350 kts | 318° |
| 2026-04-19 06:01 | 11.47747 | 125.07301 | 11439 ft | 358 kts | 318° |
| 2026-04-19 06:02 | 11.49609 | 125.05629 | 12078 ft | 361 kts | 319° |
| 2026-04-19 06:02 | 11.51505 | 125.03934 | 12697 ft | 364 kts | 319° |
| 2026-04-19 06:02 | 11.53404 | 125.02214 | 13291 ft | 367 kts | 318° |
| 2026-04-19 06:02 | 11.55295 | 125.00493 | 13868 ft | 370 kts | 318° |
| 2026-04-19 06:03 | 11.57182 | 124.98776 | 14427 ft | 373 kts | 318° |
| 2026-04-19 06:03 | 11.59125 | 124.97007 | 14986 ft | 376 kts | 318° |
| 2026-04-19 06:03 | 11.61074 | 124.95234 | 15530 ft | 379 kts | 318° |
| 2026-04-19 06:03 | 11.63052 | 124.93435 | 16065 ft | 382 kts | 318° |
| 2026-04-19 06:04 | 11.65038 | 124.91627 | 16584 ft | 385 kts | 318° |
| 2026-04-19 06:04 | 11.67048 | 124.89800 | 17094 ft | 388 kts | 318° |
| 2026-04-19 06:04 | 11.69049 | 124.87980 | 17584 ft | 391 kts | 318° |
| 2026-04-19 06:04 | 11.71104 | 124.86110 | 18071 ft | 393 kts | 318° |
| 2026-04-19 06:05 | 11.73133 | 124.84262 | 18537 ft | 396 kts | 318° |
| 2026-04-19 06:05 | 11.75201 | 124.82380 | 18996 ft | 399 kts | 318° |
| 2026-04-19 06:05 | 11.77280 | 124.80487 | 19444 ft | 401 kts | 318° |
| 2026-04-19 06:05 | 11.79350 | 124.78601 | 19879 ft | 404 kts | 318° |
| 2026-04-19 06:06 | 11.81461 | 124.76678 | 20313 ft | 407 kts | 318° |
| 2026-04-19 06:06 | 11.83587 | 124.74740 | 20739 ft | 409 kts | 318° |
| 2026-04-19 06:06 | 11.85703 | 124.72811 | 21153 ft | 412 kts | 318° |
| 2026-04-19 06:06 | 11.87836 | 124.70867 | 21563 ft | 414 kts | 318° |
| 2026-04-19 06:07 | 11.89980 | 124.68913 | 21958 ft | 417 kts | 318° |
| 2026-04-19 06:07 | 11.92161 | 124.66922 | 22351 ft | 419 kts | 318° |
| 2026-04-19 06:07 | 11.94329 | 124.64945 | 22732 ft | 422 kts | 318° |
| 2026-04-19 06:07 | 11.96514 | 124.62951 | 23105 ft | 424 kts | 318° |
| 2026-04-19 06:08 | 11.98724 | 124.60933 | 23472 ft | 426 kts | 318° |
| 2026-04-19 06:08 | 12.00935 | 124.58915 | 23829 ft | 429 kts | 318° |
| 2026-04-19 06:08 | 12.03175 | 124.56870 | 24180 ft | 431 kts | 318° |
| 2026-04-19 06:08 | 12.05384 | 124.54852 | 24518 ft | 433 kts | 318° |
| 2026-04-19 06:09 | 12.07624 | 124.52805 | 24851 ft | 435 kts | 318° |
| 2026-04-19 06:09 | 12.09899 | 124.50728 | 25185 ft | 437 kts | 318° |
| 2026-04-19 06:09 | 12.12161 | 124.48661 | 25498 ft | 439 kts | 318° |
| 2026-04-19 06:09 | 12.14435 | 124.46584 | 25806 ft | 441 kts | 318° |
| 2026-04-19 06:10 | 12.16713 | 124.44501 | 26110 ft | 443 kts | 318° |
| 2026-04-19 06:10 | 12.19031 | 124.42382 | 26413 ft | 445 kts | 318° |
| 2026-04-19 06:10 | 12.21328 | 124.40280 | 26699 ft | 447 kts | 318° |
| 2026-04-19 06:10 | 12.23666 | 124.38141 | 26983 ft | 449 kts | 318° |
| 2026-04-19 06:11 | 12.25993 | 124.36010 | 27259 ft | 451 kts | 318° |
| 2026-04-19 06:11 | 12.28323 | 124.33877 | 27529 ft | 453 kts | 318° |
| 2026-04-19 06:11 | 12.30683 | 124.31715 | 27794 ft | 455 kts | 318° |
| 2026-04-19 06:12 | 12.35403 | 124.27389 | 28304 ft | 459 kts | 318° |
| 2026-04-19 06:12 | 12.37755 | 124.25172 | 28548 ft | 460 kts | 316° |
| 2026-04-19 06:12 | 12.40028 | 124.22893 | 28786 ft | 462 kts | 315° |
| 2026-04-19 06:12 | 12.42321 | 124.20566 | 29015 ft | 463 kts | 315° |
| 2026-04-19 06:13 | 12.44619 | 124.18227 | 29234 ft | 465 kts | 315° |
| 2026-04-19 06:13 | 12.46899 | 124.15904 | 29445 ft | 466 kts | 315° |
| 2026-04-19 06:13 | 12.49202 | 124.13560 | 29651 ft | 468 kts | 315° |
| 2026-04-19 06:13 | 12.51518 | 124.11202 | 29862 ft | 469 kts | 315° |
| 2026-04-19 06:14 | 12.53823 | 124.08856 | 30136 ft | 468 kts | 315° |
| 2026-04-19 06:14 | 12.56115 | 124.06524 | 30425 ft | 467 kts | 315° |
| 2026-04-19 06:14 | 12.58412 | 124.04186 | 30704 ft | 466 kts | 315° |
| 2026-04-19 06:14 | 12.60718 | 124.01838 | 30975 ft | 466 kts | 315° |
| 2026-04-19 06:15 | 12.63033 | 123.99481 | 31245 ft | 465 kts | 315° |
| 2026-04-19 06:15 | 12.65302 | 123.97170 | 31507 ft | 465 kts | 315° |
| 2026-04-19 06:15 | 12.67601 | 123.94828 | 31772 ft | 464 kts | 315° |
| 2026-04-19 06:15 | 12.69888 | 123.92497 | 32033 ft | 464 kts | 315° |
| 2026-04-19 06:16 | 12.72160 | 123.90181 | 32265 ft | 464 kts | 315° |
| 2026-04-19 06:16 | 12.74450 | 123.87846 | 32462 ft | 465 kts | 315° |
| 2026-04-19 06:16 | 12.76741 | 123.85510 | 32646 ft | 466 kts | 315° |
| 2026-04-19 06:16 | 12.79030 | 123.83175 | 32828 ft | 467 kts | 315° |
| 2026-04-19 06:17 | 12.81331 | 123.80827 | 33008 ft | 467 kts | 315° |
| 2026-04-19 06:17 | 12.83634 | 123.78477 | 33170 ft | 468 kts | 315° |
| 2026-04-19 06:17 | 12.85956 | 123.76105 | 33327 ft | 469 kts | 315° |
| 2026-04-19 06:17 | 12.88250 | 123.73763 | 33483 ft | 470 kts | 315° |
| 2026-04-19 06:18 | 12.90569 | 123.71394 | 33639 ft | 470 kts | 315° |
| 2026-04-19 06:18 | 12.92878 | 123.69034 | 33789 ft | 471 kts | 315° |
| 2026-04-19 06:18 | 12.97513 | 123.64296 | 33880 ft | 472 kts | 315° |
| 2026-04-19 06:19 | 13.02167 | 123.59536 | 33883 ft | 472 kts | 315° |
| 2026-04-19 06:19 | 13.06799 | 123.54794 | 33884 ft | 472 kts | 315° |
| 2026-04-19 06:20 | 13.11462 | 123.50019 | 33884 ft | 472 kts | 315° |
| 2026-04-19 06:20 | 13.16081 | 123.45288 | 33875 ft | 472 kts | 315° |
| 2026-04-19 06:21 | 13.20741 | 123.40511 | 33866 ft | 472 kts | 315° |
| 2026-04-19 06:21 | 13.25379 | 123.35754 | 33861 ft | 472 kts | 315° |
| 2026-04-19 06:22 | 13.30011 | 123.30999 | 33859 ft | 472 kts | 315° |
| 2026-04-19 06:22 | 13.34658 | 123.26227 | 33858 ft | 472 kts | 315° |
| 2026-04-19 06:23 | 13.39272 | 123.21485 | 33857 ft | 472 kts | 315° |
| 2026-04-19 06:23 | 13.43914 | 123.16712 | 33857 ft | 472 kts | 315° |
| 2026-04-19 06:24 | 13.48564 | 123.11929 | 33857 ft | 472 kts | 315° |
| 2026-04-19 06:24 | 13.53189 | 123.07169 | 33857 ft | 472 kts | 315° |
| 2026-04-19 06:25 | 13.57812 | 123.02406 | 33857 ft | 472 kts | 315° |
| 2026-04-19 06:25 | 13.62442 | 122.97635 | 33857 ft | 472 kts | 315° |
| 2026-04-19 06:26 | 13.67077 | 122.92855 | 33857 ft | 472 kts | 315° |
| 2026-04-19 06:26 | 13.71724 | 122.88059 | 33857 ft | 472 kts | 315° |
| 2026-04-19 06:27 | 13.76312 | 122.83240 | 33857 ft | 472 kts | 312° |
| 2026-04-19 06:27 | 13.80472 | 122.78043 | 33857 ft | 472 kts | 306° |
| 2026-04-19 06:28 | 13.84075 | 122.72393 | 33857 ft | 472 kts | 300° |
| 2026-04-19 06:28 | 13.87094 | 122.66419 | 33858 ft | 472 kts | 296° |
| 2026-04-19 06:29 | 13.89971 | 122.60323 | 33857 ft | 472 kts | 296° |
| 2026-04-19 06:29 | 13.92843 | 122.54240 | 33857 ft | 472 kts | 296° |
| 2026-04-19 06:30 | 13.95707 | 122.48186 | 33857 ft | 472 kts | 296° |
| 2026-04-19 06:30 | 13.98570 | 122.42136 | 33857 ft | 472 kts | 296° |
| 2026-04-19 06:31 | 14.01463 | 122.36018 | 33857 ft | 472 kts | 296° |
| 2026-04-19 06:31 | 14.04334 | 122.29945 | 33609 ft | 471 kts | 296° |
| 2026-04-19 06:32 | 14.05749 | 122.26949 | 33159 ft | 466 kts | 296° |
| 2026-04-19 06:32 | 14.07160 | 122.23960 | 32470 ft | 464 kts | 296° |
| 2026-04-19 06:32 | 14.08564 | 122.20986 | 31712 ft | 464 kts | 296° |
| 2026-04-19 06:32 | 14.09968 | 122.18010 | 30866 ft | 465 kts | 296° |
| 2026-04-19 06:33 | 14.11383 | 122.15011 | 29952 ft | 467 kts | 296° |
| 2026-04-19 06:33 | 14.12795 | 122.12015 | 29043 ft | 468 kts | 296° |
| 2026-04-19 06:33 | 14.14193 | 122.09048 | 28499 ft | 460 kts | 296° |
| 2026-04-19 06:33 | 14.15561 | 122.06142 | 28271 ft | 446 kts | 296° |
| 2026-04-19 06:34 | 14.16900 | 122.03300 | 28039 ft | 432 kts | 296° |
| 2026-04-19 06:34 | 14.18184 | 122.00571 | 27819 ft | 420 kts | 296° |
| 2026-04-19 06:34 | 14.19441 | 121.97898 | 27368 ft | 414 kts | 296° |
| 2026-04-19 06:34 | 14.20704 | 121.95213 | 26548 ft | 418 kts | 296° |
| 2026-04-19 06:35 | 14.21967 | 121.92529 | 26089 ft | 411 kts | 295° |
| 2026-04-19 06:35 | 14.23152 | 121.89877 | 25640 ft | 405 kts | 294° |
| 2026-04-19 06:35 | 14.24275 | 121.87254 | 25114 ft | 402 kts | 294° |
| 2026-04-19 06:35 | 14.25386 | 121.84637 | 24573 ft | 399 kts | 294° |
| 2026-04-19 06:36 | 14.26496 | 121.82029 | 24039 ft | 396 kts | 294° |
| 2026-04-19 06:36 | 14.27599 | 121.79425 | 23505 ft | 392 kts | 292° |
| 2026-04-19 06:36 | 14.28231 | 121.76725 | 22918 ft | 390 kts | 274° |
| 2026-04-19 06:36 | 14.28247 | 121.73965 | 22493 ft | 384 kts | 268° |
| 2026-04-19 06:37 | 14.28147 | 121.71249 | 22241 ft | 374 kts | 268° |
| 2026-04-19 06:37 | 14.28058 | 121.68595 | 21590 ft | 376 kts | 268° |
| 2026-04-19 06:37 | 14.27994 | 121.65897 | 20939 ft | 378 kts | 269° |
| 2026-04-19 06:37 | 14.27953 | 121.63203 | 20430 ft | 375 kts | 269° |
| 2026-04-19 06:38 | 14.27924 | 121.60510 | 19941 ft | 372 kts | 269° |
| 2026-04-19 06:38 | 14.27904 | 121.57879 | 19452 ft | 369 kts | 270° |
| 2026-04-19 06:38 | 14.27889 | 121.55226 | 18957 ft | 366 kts | 270° |
| 2026-04-19 06:38 | 14.27876 | 121.52636 | 18475 ft | 364 kts | 270° |
| 2026-04-19 06:39 | 14.27864 | 121.50028 | 17990 ft | 361 kts | 270° |
| 2026-04-19 06:39 | 14.27853 | 121.47444 | 17511 ft | 359 kts | 270° |
| 2026-04-19 06:39 | 14.27842 | 121.44920 | 17044 ft | 356 kts | 270° |
| 2026-04-19 06:39 | 14.27831 | 121.42371 | 16640 ft | 351 kts | 270° |
| 2026-04-19 06:40 | 14.27821 | 121.39897 | 16458 ft | 340 kts | 270° |
| 2026-04-19 06:40 | 14.27810 | 121.37479 | 16266 ft | 330 kts | 270° |
| 2026-04-19 06:40 | 14.27800 | 121.35159 | 15967 ft | 325 kts | 270° |
| 2026-04-19 06:40 | 14.27790 | 121.32850 | 15563 ft | 323 kts | 269° |
| 2026-04-19 06:41 | 14.27779 | 121.30531 | 15270 ft | 320 kts | 269° |
| 2026-04-19 06:41 | 14.27768 | 121.28226 | 15027 ft | 321 kts | 269° |
| 2026-04-19 06:41 | 14.27758 | 121.25942 | 14793 ft | 319 kts | 269° |
| 2026-04-19 06:41 | 14.27747 | 121.23696 | 14442 ft | 316 kts | 269° |
| 2026-04-19 06:42 | 14.27736 | 121.21422 | 14010 ft | 316 kts | 269° |
| 2026-04-19 06:42 | 14.27725 | 121.19149 | 13604 ft | 314 kts | 269° |
| 2026-04-19 06:42 | 14.27714 | 121.16906 | 13207 ft | 312 kts | 269° |
| 2026-04-19 06:42 | 14.27702 | 121.14688 | 12810 ft | 310 kts | 269° |
| 2026-04-19 06:43 | 14.27691 | 121.12490 | 12413 ft | 308 kts | 269° |
| 2026-04-19 06:43 | 14.27679 | 121.10265 | 12007 ft | 307 kts | 269° |
| 2026-04-19 06:43 | 14.27667 | 121.08087 | 11608 ft | 305 kts | 269° |
| 2026-04-19 06:43 | 14.27655 | 121.05921 | 11207 ft | 303 kts | 269° |
| 2026-04-19 06:44 | 14.27643 | 121.03767 | 10805 ft | 301 kts | 269° |
| 2026-04-19 06:44 | 14.27631 | 121.01599 | 10398 ft | 299 kts | 269° |
| 2026-04-19 06:44 | 14.27618 | 120.99468 | 9998 ft | 298 kts | 269° |
| 2026-04-19 06:44 | 14.27606 | 120.97327 | 9596 ft | 296 kts | 269° |
| 2026-04-19 06:45 | 14.27593 | 120.95239 | 9223 ft | 293 kts | 269° |
| 2026-04-19 06:45 | 14.27580 | 120.93142 | 8960 ft | 287 kts | 269° |
| 2026-04-19 06:45 | 14.27567 | 120.91126 | 8711 ft | 280 kts | 269° |
| 2026-04-19 06:45 | 14.27694 | 120.89151 | 8420 ft | 271 kts | 286° |
| 2026-04-19 06:46 | 14.28637 | 120.87534 | 7879 ft | 264 kts | 319° |
| 2026-04-19 06:46 | 14.30160 | 120.86564 | 7357 ft | 257 kts | 335° |
| 2026-04-19 06:46 | 14.31767 | 120.85814 | 6914 ft | 249 kts | 335° |
| 2026-04-19 06:46 | 14.33303 | 120.85063 | 6378 ft | 246 kts | 333° |
| 2026-04-19 06:47 | 14.34809 | 120.84265 | 5813 ft | 244 kts | 332° |
| 2026-04-19 06:47 | 14.36301 | 120.83433 | 5188 ft | 245 kts | 331° |
| 2026-04-19 06:47 | 14.37857 | 120.82790 | 4581 ft | 244 kts | 354° |
| 2026-04-19 06:47 | 14.39494 | 120.83025 | 4121 ft | 238 kts | 26° |
| 2026-04-19 06:48 | 14.40790 | 120.84052 | 3724 ft | 239 kts | 50° |
| 2026-04-19 06:48 | 14.41756 | 120.85468 | 3334 ft | 241 kts | 59° |
| 2026-04-19 06:48 | 14.42575 | 120.86968 | 2945 ft | 243 kts | 61° |
| 2026-04-19 06:48 | 14.43391 | 120.88506 | 2584 ft | 243 kts | 61° |
| 2026-04-19 06:49 | 14.44216 | 120.90013 | 2272 ft | 236 kts | 60° |
| 2026-04-19 06:49 | 14.45009 | 120.91435 | 1969 ft | 223 kts | 60° |
| 2026-04-19 06:49 | 14.45764 | 120.92786 | 1675 ft | 214 kts | 60° |
| 2026-04-19 06:49 | 14.46487 | 120.94086 | 1423 ft | 204 kts | 60° |
| 2026-04-19 06:50 | 14.47168 | 120.95309 | 1212 ft | 190 kts | 60° |
| 2026-04-19 06:50 | 14.47807 | 120.96458 | 919 ft | 182 kts | 60° |
| 2026-04-19 06:50 | 14.48411 | 120.97544 | 690 ft | 166 kts | 60° |
| 2026-04-19 06:50 | 14.48962 | 120.98535 | 455 ft | 152 kts | 60° |
| 2026-04-19 06:51 | 14.49460 | 120.99432 | 244 ft | 141 kts | 60° |
| 2026-04-19 06:51 | 14.49948 | 121.00308 | 96 ft | 138 kts | 60° |
| 2026-04-19 06:51 | 14.50370 | 121.01066 | 84 ft | 96 kts | 60° |
| 2026-04-19 06:51 | 14.50614 | 121.01507 | 84 ft | 44 kts | 60° |
| 2026-04-19 06:52 | 14.50736 | 121.01688 | 84 ft | 25 kts | 43° |
| 2026-04-19 06:52 | 14.50838 | 121.01775 | 84 ft | 10 kts | 38° |
| 2026-04-19 06:52 | 14.50900 | 121.01769 | 84 ft | 10 kts | 296° |
| 2026-04-19 06:52 | 14.50879 | 121.01697 | 84 ft | 11 kts | 240° |
| 2026-04-19 06:53 | 14.50838 | 121.01623 | 84 ft | 12 kts | 240° |
| 2026-04-19 06:53 | 14.50795 | 121.01544 | 84 ft | 12 kts | 240° |
| 2026-04-19 06:53 | 14.50749 | 121.01463 | 84 ft | 13 kts | 240° |
| 2026-04-19 06:53 | 14.50708 | 121.01389 | 84 ft | 9 kts | 240° |
| 2026-04-19 06:54 | 14.50693 | 121.01340 | 84 ft | 6 kts | 287° |
| 2026-04-19 06:54 | 14.50726 | 121.01314 | 84 ft | 5 kts | 1° |
| 2026-04-19 06:54 | 14.50762 | 121.01327 | 84 ft | 3 kts | 360° |
| 2026-04-19 06:54 | 14.50786 | 121.01317 | 84 ft | 4 kts | 331° |
| 2026-04-19 06:55 | 14.50814 | 121.01302 | 84 ft | 4 kts | 332° |
| 2026-04-19 06:55 | 14.50839 | 121.01288 | 84 ft | 3 kts | 332° |
| 2026-04-19 06:55 | 14.50854 | 121.01279 | 84 ft | 0 kts | 332° |
| 2026-04-19 06:55 | 14.50855 | 121.01279 | 84 ft | 0 kts | 332° |